Time;durP1;ratioP1;P1;durP2;ratioP2;P2;SDS_P1;SDS_P2;PMS_P1;PMS_P2;Temp;Humidity;BMP_temperature;BMP_pressure;BME280_temperature;BME280_humidity;BME280_pressure;Samples;Min_cycle;Max_cycle;Signal;HPM_P1;HPM_P2
2020/12/25 00:00:08;;;;;;;3.47;2.22;;;;;;;4.00;94.54;100435.66;4962454;28;20061;-52
2020/12/25 00:02:35;;;;;;;6.43;2.30;;;;;;;4.02;94.49;100431.56;4962375;28;20055;-51
2020/12/25 00:05:03;;;;;;;5.30;2.13;;;;;;;3.85;95.34;100442.53;4962674;28;20422;-49
2020/12/25 00:07:29;;;;;;;3.85;1.40;;;;;;;4.00;95.00;100440.72;4970355;28;20047;-52
2020/12/25 00:09:56;;;;;;;5.32;2.22;;;;;;;3.82;95.32;100439.84;4961389;28;20147;-49
2020/12/25 00:12:22;;;;;;;3.78;1.95;;;;;;;3.76;95.96;100442.09;4964045;28;20047;-50
2020/12/25 00:14:49;;;;;;;5.72;1.88;;;;;;;3.81;96.29;100446.59;4967967;28;20051;-50
2020/12/25 00:17:15;;;;;;;3.17;1.73;;;;;;;3.94;95.67;100442.97;4963989;28;20073;-52
2020/12/25 00:19:42;;;;;;;4.50;1.73;;;;;;;3.93;95.41;100445.44;4962253;28;20059;-48
2020/12/25 00:22:08;;;;;;;3.72;1.55;;;;;;;3.81;95.16;100451.66;4963249;28;20062;-51
2020/12/25 00:24:35;;;;;;;3.80;1.98;;;;;;;3.82;96.21;100448.31;4962618;28;20050;-48
2020/12/25 00:27:01;;;;;;;3.70;1.90;;;;;;;3.77;96.41;100453.94;4962319;28;20591;-49
2020/12/25 00:29:28;;;;;;;3.65;1.75;;;;;;;3.65;97.06;100449.19;4963506;28;20057;-50
2020/12/25 00:31:54;;;;;;;4.72;1.80;;;;;;;3.81;97.20;100456.72;4961355;28;20058;-53
2020/12/25 00:34:21;;;;;;;5.95;2.22;;;;;;;3.67;97.28;100460.22;4963943;28;20051;-48
2020/12/25 00:36:47;;;;;;;5.43;1.90;;;;;;;3.74;97.14;100458.84;4960735;28;20059;-51
2020/12/25 00:39:16;;;;;;;5.75;2.10;;;;;;;4.20;94.76;100472.06;4960537;28;20051;-50
2020/12/25 00:41:51;;;;;;;4.28;2.00;;;;;;;4.01;96.13;100469.47;4958625;28;20051;-47
2020/12/25 00:44:18;;;;;;;2.78;2.13;;;;;;;3.84;96.19;100476.28;4956808;28;20059;-47
2020/12/25 00:46:46;;;;;;;4.25;2.00;;;;;;;3.83;96.99;100479.56;4958325;28;20055;-48
2020/12/25 00:49:13;;;;;;;5.80;2.55;;;;;;;3.95;96.89;100484.38;4960500;28;20046;-50
2020/12/25 00:51:40;;;;;;;3.03;2.53;;;;;;;3.64;97.18;100487.06;4958709;28;20046;-52
2020/12/25 00:54:06;;;;;;;5.57;3.28;;;;;;;3.80;97.45;100482.84;4959267;28;20051;-54
2020/12/25 00:56:33;;;;;;;5.38;2.67;;;;;;;3.97;96.17;100485.31;4959216;28;20046;-50
2020/12/25 00:58:59;;;;;;;4.60;2.53;;;;;;;3.82;97.50;100488.84;4958650;28;20059;-52
2020/12/25 01:01:26;;;;;;;4.97;2.92;;;;;;;4.03;95.99;100491.56;4960430;28;20054;-50
2020/12/25 01:04:10;;;;;;;4.38;2.95;;;;;;;4.04;95.95;100503.44;4959993;28;20055;-46
2020/12/25 01:06:37;;;;;;;6.30;2.92;;;;;;;4.02;95.61;100504.13;4958883;28;20050;-50
2020/12/25 01:09:03;;;;;;;5.50;2.70;;;;;;;4.11;95.30;100514.72;4959027;28;20043;-51
2020/12/25 01:11:30;;;;;;;5.45;2.78;;;;;;;4.22;93.85;100517.78;4959810;28;20053;-53
2020/12/25 01:13:56;;;;;;;6.30;2.55;;;;;;;4.18;94.38;100523.50;4958191;28;20778;-47
2020/12/25 01:16:23;;;;;;;6.90;2.90;;;;;;;4.16;94.58;100520.00;4960146;28;20428;-49
2020/12/25 01:18:50;;;;;;;6.63;2.63;;;;;;;4.25;94.02;100521.34;4957974;28;20055;-49
2020/12/25 01:21:16;;;;;;;4.00;2.65;;;;;;;4.11;95.06;100526.50;4963353;28;20058;-48
2020/12/25 01:23:44;;;;;;;5.03;2.50;;;;;;;4.32;93.91;100536.03;4957910;28;20134;-46
2020/12/25 01:26:11;;;;;;;4.80;2.63;;;;;;;3.99;94.92;100545.41;4959650;28;20172;-49
2020/12/25 01:28:38;;;;;;;4.72;2.83;;;;;;;3.71;97.00;100548.22;4960716;28;20052;-47
2020/12/25 01:31:05;;;;;;;6.85;2.78;;;;;;;3.98;97.19;100550.41;4958554;28;20051;-48
2020/12/25 01:33:36;;;;;;;3.75;2.88;;;;;;;4.03;95.96;100544.75;4958929;28;20521;-52
2020/12/25 01:36:03;;;;;;;7.95;2.53;;;;;;;3.89;96.76;100542.34;4958206;28;20509;-49
2020/12/25 01:38:30;;;;;;;5.65;2.88;;;;;;;4.04;96.81;100551.56;4959166;28;20101;-46
2020/12/25 01:40:57;;;;;;;4.25;2.53;;;;;;;3.98;96.29;100558.88;4957389;28;20058;-48
2020/12/25 01:43:24;;;;;;;6.57;2.50;;;;;;;4.11;96.57;100556.91;4959897;28;20073;-47
2020/12/25 01:45:51;;;;;;;3.70;2.15;;;;;;;3.91;97.07;100556.81;4957391;28;20059;-48
2020/12/25 01:48:18;;;;;;;8.23;2.72;;;;;;;4.00;96.71;100557.28;4958692;28;20469;-46
2020/12/25 01:50:45;;;;;;;3.97;2.53;;;;;;;3.84;96.81;100557.31;4957274;28;20055;-51
2020/12/25 01:53:15;;;;;;;4.65;2.40;;;;;;;3.66;97.79;100563.97;4959413;28;21015;-47
2020/12/25 01:55:42;;;;;;;3.70;2.33;;;;;;;3.79;97.82;100552.00;4957804;28;20094;-52
2020/12/25 01:58:08;;;;;;;6.00;2.58;;;;;;;3.83;96.59;100556.41;4958744;28;20084;-55
2020/12/25 02:00:35;;;;;;;3.42;2.30;;;;;;;3.95;95.94;100560.38;4958403;28;20132;-53
2020/12/25 02:03:01;;;;;;;4.43;2.17;;;;;;;3.72;96.84;100552.47;4957913;28;20043;-52
2020/12/25 02:05:28;;;;;;;5.10;3.47;;;;;;;4.06;97.06;100554.16;4959274;28;20557;-52
2020/12/25 02:07:57;;;;;;;6.10;2.30;;;;;;;3.91;96.05;100550.88;4956551;28;20050;-51
2020/12/25 02:10:23;;;;;;;4.57;2.35;;;;;;;3.94;95.86;100556.09;4959858;28;20047;-51
2020/12/25 02:12:51;;;;;;;5.13;2.10;;;;;;;4.08;95.98;100566.13;4957331;28;20061;-49
2020/12/25 02:15:18;;;;;;;4.25;1.77;;;;;;;3.78;95.18;100564.59;4955637;28;20457;-52
2020/12/25 02:17:46;;;;;;;6.47;2.40;;;;;;;4.00;94.99;100569.94;4957167;28;20055;-50
2020/12/25 02:20:13;;;;;;;2.60;1.77;;;;;;;4.23;93.56;100576.16;4959190;28;20481;-50
2020/12/25 02:22:40;;;;;;;2.55;2.00;;;;;;;4.14;94.15;100572.28;4957103;28;20544;-50
2020/12/25 02:25:07;;;;;;;3.38;1.70;;;;;;;4.01;95.06;100568.28;4958173;28;20059;-49
2020/12/25 02:27:33;;;;;;;6.13;1.88;;;;;;;3.82;94.80;100567.34;4957934;28;20079;-47
2020/12/25 02:30:01;;;;;;;2.88;2.08;;;;;;;3.87;95.06;100562.50;4957168;28;20070;-50
2020/12/25 02:32:27;;;;;;;3.22;2.00;;;;;;;4.03;95.41;100561.63;4959092;28;20107;-47
2020/12/25 02:35:10;;;;;;;3.25;1.50;;;;;;;3.98;94.31;100566.47;4958608;28;20106;-50
2020/12/25 02:37:36;;;;;;;4.03;1.90;;;;;;;3.79;94.05;100573.91;4957324;28;20417;-54
2020/12/25 02:40:04;;;;;;;2.65;1.58;;;;;;;3.60;94.62;100578.84;4957539;28;20100;-50
2020/12/25 02:42:31;;;;;;;3.50;1.60;;;;;;;4.14;93.39;100584.97;4958085;28;20050;-52
2020/12/25 02:44:57;;;;;;;3.28;1.50;;;;;;;3.95;92.50;100578.97;4956555;28;20051;-53
2020/12/25 02:47:23;;;;;;;2.15;1.23;;;;;;;4.03;92.42;100581.91;4958945;28;20043;-53
2020/12/25 02:49:56;;;;;;;3.13;1.50;;;;;;;3.80;92.64;100588.34;4956492;28;20811;-53
2020/12/25 02:52:22;;;;;;;3.58;1.65;;;;;;;3.79;92.81;100590.00;4958851;28;20042;-52
2020/12/25 02:54:49;;;;;;;3.85;1.60;;;;;;;3.78;93.11;100588.25;4955229;28;20043;-53
2020/12/25 02:57:15;;;;;;;2.92;1.27;;;;;;;3.81;93.10;100588.41;4959005;28;20054;-52
2020/12/25 02:59:41;;;;;;;3.30;1.70;;;;;;;3.87;91.28;100585.31;4956712;28;20353;-50
2020/12/25 03:02:08;;;;;;;2.33;1.33;;;;;;;3.87;90.55;100592.91;4955267;28;20514;-52
2020/12/25 03:04:35;;;;;;;3.33;1.40;;;;;;;3.93;91.50;100592.34;4956370;28;20054;-51
2020/12/25 03:07:01;;;;;;;2.92;1.10;;;;;;;3.57;91.19;100599.81;4956465;28;20074;-48
2020/12/25 03:09:27;;;;;;;2.28;0.80;;;;;;;3.94;90.17;100604.25;4958025;28;20484;-53
2020/12/25 03:11:54;;;;;;;2.13;1.00;;;;;;;3.60;91.18;100609.22;4955827;28;20055;-49
2020/12/25 03:14:20;;;;;;;3.15;1.30;;;;;;;3.68;90.53;100611.34;4958608;28;20183;-51
2020/12/25 03:16:47;;;;;;;1.50;0.90;;;;;;;3.53;91.18;100616.50;4954411;28;20576;-49
2020/12/25 03:19:13;;;;;;;1.73;0.77;;;;;;;3.72;89.86;100612.38;4956134;28;20046;-50
2020/12/25 03:21:40;;;;;;;2.55;0.88;;;;;;;3.62;88.90;100625.38;4958398;28;20125;-52
2020/12/25 03:24:06;;;;;;;1.15;0.60;;;;;;;3.60;89.86;100622.75;4957617;28;20462;-50
2020/12/25 03:26:33;;;;;;;2.78;1.08;;;;;;;3.70;87.96;100621.59;4975256;23;20095;-46
2020/12/25 03:29:00;;;;;;;0.98;0.70;;;;;;;3.69;88.91;100623.22;4947808;28;20051;-52
2020/12/25 03:31:26;;;;;;;3.17;1.00;;;;;;;3.82;87.98;100624.72;4949065;28;20055;-50
2020/12/25 03:33:53;;;;;;;1.73;0.80;;;;;;;3.48;88.74;100639.84;4946179;28;20114;-46
2020/12/25 03:36:19;;;;;;;3.25;0.70;;;;;;;3.56;89.22;100631.84;4945939;28;20155;-49
2020/12/25 03:38:45;;;;;;;1.45;0.60;;;;;;;3.45;88.32;100639.66;4946679;28;20110;-48
2020/12/25 03:41:12;;;;;;;1.58;0.60;;;;;;;3.60;88.90;100632.00;4946340;28;20050;-49
2020/12/25 03:43:39;;;;;;;1.20;0.55;;;;;;;3.47;88.40;100638.97;4946082;28;20063;-49
2020/12/25 03:46:05;;;;;;;3.42;0.80;;;;;;;3.66;87.82;100624.75;4946140;28;20050;-49
2020/12/25 03:48:31;;;;;;;1.60;0.68;;;;;;;3.24;88.82;100632.69;4945772;28;20062;-48
2020/12/25 03:51:00;;;;;;;1.10;0.68;;;;;;;3.42;89.65;100630.25;4945830;28;20118;-47
2020/12/25 03:53:26;;;;;;;0.43;0.40;;;;;;;3.22;90.66;100624.13;4946353;28;20047;-51
2020/12/25 03:55:53;;;;;;;1.58;0.50;;;;;;;3.53;89.54;100633.34;4946250;28;20047;-49
2020/12/25 03:58:19;;;;;;;0.68;0.50;;;;;;;3.29;89.67;100641.38;4946102;28;20114;-50
2020/12/25 04:00:45;;;;;;;2.63;0.70;;;;;;;3.27;89.78;100644.59;4945029;28;20887;-46
2020/12/25 04:03:13;;;;;;;1.10;0.80;;;;;;;3.51;89.18;100655.16;4946043;28;20540;-48
2020/12/25 04:05:42;;;;;;;1.58;0.60;;;;;;;3.58;89.28;100657.25;4946075;28;20102;-47
2020/12/25 04:08:09;;;;;;;2.17;0.65;;;;;;;3.43;89.42;100662.38;4945945;28;20051;-50
2020/12/25 04:10:35;;;;;;;1.58;0.45;;;;;;;3.49;90.36;100660.16;4946292;28;20586;-49
2020/12/25 04:13:02;;;;;;;4.47;0.70;;;;;;;3.36;91.30;100667.00;4946437;28;20047;-48
2020/12/25 04:15:28;;;;;;;0.95;0.82;;;;;;;3.60;88.99;100665.78;4948296;28;20114;-50
2020/12/25 04:17:55;;;;;;;1.00;0.50;;;;;;;3.19;90.13;100664.44;4949460;28;20450;-49
2020/12/25 04:20:21;;;;;;;2.10;0.50;;;;;;;3.54;90.98;100675.59;4949522;28;20047;-49
2020/12/25 04:22:47;;;;;;;0.55;0.55;;;;;;;3.39;88.12;100677.31;4949703;28;20122;-47
2020/12/25 04:25:14;;;;;;;0.82;0.50;;;;;;;3.75;87.60;100675.88;4952841;28;20101;-47
2020/12/25 04:27:40;;;;;;;1.92;0.73;;;;;;;3.41;89.44;100689.25;4968083;28;20055;-50
2020/12/25 04:30:06;;;;;;;2.15;0.68;;;;;;;3.24;88.52;100685.81;4968461;28;20459;-49
2020/12/25 04:32:33;;;;;;;1.15;0.50;;;;;;;3.51;88.16;100695.66;4968293;28;20051;-47
2020/12/25 04:34:59;;;;;;;0.57;0.43;;;;;;;3.45;87.41;100692.81;4968374;28;20058;-50
2020/12/25 04:37:26;;;;;;;2.78;0.50;;;;;;;3.41;88.67;100696.84;4967992;28;20414;-50
2020/12/25 04:39:53;;;;;;;0.73;0.40;;;;;;;3.52;87.74;100695.78;4968330;28;20070;-50
2020/12/25 04:42:19;;;;;;;0.52;0.32;;;;;;;3.38;86.72;100699.22;4968344;28;20050;-46
2020/12/25 04:44:47;;;;;;;2.13;0.50;;;;;;;3.32;87.76;100696.34;4968551;28;20464;-48
2020/12/25 04:47:14;;;;;;;1.10;0.40;;;;;;;3.13;87.48;100699.50;4968257;28;20345;-47
2020/12/25 04:49:40;;;;;;;0.68;0.50;;;;;;;3.48;87.13;100703.13;4968287;28;20053;-49
2020/12/25 04:52:07;;;;;;;1.27;0.40;;;;;;;2.97;88.90;100699.47;4968077;28;20508;-47
2020/12/25 04:54:34;;;;;;;1.00;0.50;;;;;;;3.29;87.76;100708.84;4968113;28;20508;-47
2020/12/25 04:57:01;;;;;;;2.33;0.43;;;;;;;3.05;89.04;100716.81;4968020;28;20046;-48
2020/12/25 04:59:29;;;;;;;1.15;0.50;;;;;;;3.22;88.81;100712.66;4967672;28;20403;-47
2020/12/25 05:01:56;;;;;;;1.35;0.50;;;;;;;3.27;87.23;100717.97;4967801;28;20137;-48
2020/12/25 05:04:24;;;;;;;0.88;0.47;;;;;;;3.44;87.26;100726.50;4967889;28;20070;-47
2020/12/25 05:06:52;;;;;;;3.88;0.63;;;;;;;3.08;88.93;100725.34;4965107;28;20503;-48
2020/12/25 05:09:25;;;;;;;1.85;0.43;;;;;;;2.93;88.28;100723.69;4963807;28;20043;-46
2020/12/25 05:11:56;;;;;;;0.75;0.57;;;;;;;2.93;88.45;100723.69;4965053;28;20055;-50
2020/12/25 05:14:30;;;;;;;1.70;0.60;;;;;;;3.06;89.12;100732.84;4963996;28;20152;-48
2020/12/25 05:16:58;;;;;;;2.35;0.70;;;;;;;3.16;87.28;100740.16;4965576;28;20135;-47
2020/12/25 05:19:32;;;;;;;1.52;0.45;;;;;;;3.44;85.03;100737.50;4967580;28;20538;-50
2020/12/25 05:22:01;;;;;;;2.13;0.60;;;;;;;3.45;85.85;100746.84;4950518;28;20051;-48
2020/12/25 05:24:39;;;;;;;0.75;0.47;;;;;;;3.51;84.28;100752.25;4966730;28;20401;-53
2020/12/25 05:27:13;;;;;;;0.70;0.40;;;;;;;3.15;85.44;100747.69;4967284;28;20449;-47
2020/12/25 05:29:40;;;;;;;0.68;0.30;;;;;;;2.93;86.06;100751.53;4967506;28;20126;-46
2020/12/25 05:32:08;;;;;;;0.90;0.38;;;;;;;2.94;85.84;100750.72;4950036;28;20100;-47
2020/12/25 05:34:36;;;;;;;0.30;0.30;;;;;;;2.76;86.25;100755.59;4967104;28;20117;-51
2020/12/25 05:37:07;;;;;;;0.90;0.35;;;;;;;2.63;87.53;100758.19;4966941;28;20051;-51
2020/12/25 05:39:35;;;;;;;0.38;0.30;;;;;;;2.82;86.98;100757.63;4967172;28;20051;-48
2020/12/25 05:42:04;;;;;;;1.10;0.50;;;;;;;3.21;85.56;100771.66;4967329;28;20046;-53
2020/12/25 05:44:38;;;;;;;0.47;0.47;;;;;;;2.89;87.23;100767.31;4967112;28;20094;-46
2020/12/25 05:47:07;;;;;;;1.85;0.40;;;;;;;2.70;87.45;100767.03;4966996;28;20046;-49
2020/12/25 05:49:34;;;;;;;0.32;0.28;;;;;;;2.76;86.63;100773.31;4966969;28;20046;-48
2020/12/25 05:52:00;;;;;;;2.20;0.68;;;;;;;2.99;86.76;100779.69;4967031;28;20043;-49
2020/12/25 05:54:28;;;;;;;1.08;0.40;;;;;;;3.09;86.22;100788.66;4967156;28;20046;-47
2020/12/25 05:56:57;;;;;;;0.55;0.30;;;;;;;3.22;85.29;100795.31;4966990;28;20050;-51
2020/12/25 05:59:29;;;;;;;1.40;0.30;;;;;;;2.81;87.01;100796.31;4967466;28;20047;-49
2020/12/25 06:02:03;;;;;;;1.10;0.50;;;;;;;2.78;88.84;100798.69;4967121;28;20653;-48
2020/12/25 06:04:32;;;;;;;0.57;0.30;;;;;;;2.79;87.93;100793.72;4966997;28;20102;-49
2020/12/25 06:07:00;;;;;;;1.10;0.40;;;;;;;2.65;88.63;100799.63;4966556;28;20046;-47
2020/12/25 06:09:31;;;;;;;1.67;0.50;;;;;;;2.79;88.33;100802.97;4966912;28;20054;-49
2020/12/25 06:11:58;;;;;;;0.52;0.52;;;;;;;2.62;88.97;100801.97;4966710;28;20267;-48
2020/12/25 06:14:25;;;;;;;1.55;0.30;;;;;;;2.41;89.78;100798.19;4966702;28;20101;-51
2020/12/25 06:17:17;;;;;;;1.05;0.60;;;;;;;2.66;87.92;100798.84;4966382;28;20398;-49
2020/12/25 06:19:50;;;;;;;1.63;0.47;;;;;;;2.46;89.98;100805.25;4966407;28;20082;-48
2020/12/25 06:22:22;;;;;;;1.20;0.63;;;;;;;2.87;89.11;100811.00;4966469;28;20067;-47
2020/12/25 06:24:51;;;;;;;1.50;0.50;;;;;;;2.91;87.76;100820.50;4965972;28;20054;-46
2020/12/25 06:27:18;;;;;;;1.15;0.90;;;;;;;2.74;88.53;100827.09;4962029;28;20050;-49
2020/12/25 06:29:44;;;;;;;1.00;0.70;;;;;;;2.97;89.37;100825.94;4967060;28;20059;-46
2020/12/25 06:32:11;;;;;;;1.25;0.45;;;;;;;2.60;88.97;100838.06;4965563;28;20066;-48
2020/12/25 06:34:48;;;;;;;0.40;0.40;;;;;;;3.06;87.24;100831.53;4966331;28;20073;-48
2020/12/25 06:37:16;;;;;;;1.73;0.50;;;;;;;2.67;89.45;100830.91;4964968;28;20074;-51
2020/12/25 06:39:57;;;;;;;0.40;0.40;;;;;;;2.65;89.64;100839.19;4966005;28;20389;-48
2020/12/25 06:42:36;;;;;;;0.40;0.40;;;;;;;2.85;88.19;100838.72;4962320;28;20456;-48
2020/12/25 06:45:10;;;;;;;1.25;0.40;;;;;;;3.15;87.63;100839.63;4964839;28;20053;-49
2020/12/25 06:47:38;;;;;;;2.90;0.55;;;;;;;3.16;87.85;100838.84;4965801;28;20125;-46
2020/12/25 06:50:13;;;;;;;0.90;0.55;;;;;;;2.70;89.26;100847.94;4966179;28;20074;-47
2020/12/25 06:52:57;;;;;;;1.27;0.70;;;;;;;2.56;90.57;100849.63;4965962;28;20074;-51
2020/12/25 06:55:24;;;;;;;1.83;0.50;;;;;;;2.69;89.32;100856.31;4962534;28;20054;-49
2020/12/25 06:57:54;;;;;;;1.00;0.70;;;;;;;2.61;90.92;100862.53;4962747;28;20568;-46
2020/12/25 07:00:23;;;;;;;2.35;0.45;;;;;;;2.63;89.97;100858.44;4961091;28;20058;-46
2020/12/25 07:02:50;;;;;;;1.75;0.85;;;;;;;3.13;86.92;100863.09;4961737;28;20074;-47
2020/12/25 07:05:16;;;;;;;0.65;0.60;;;;;;;3.04;87.78;100859.22;4966068;28;20054;-50
2020/12/25 07:07:43;;;;;;;0.60;0.50;;;;;;;2.60;89.43;100869.25;4965472;28;20350;-49
2020/12/25 07:10:11;;;;;;;0.82;0.40;;;;;;;2.80;88.80;100867.91;4965648;28;20125;-49
2020/12/25 07:12:38;;;;;;;2.40;0.68;;;;;;;2.87;88.37;100879.28;4948557;28;20507;-50
2020/12/25 07:15:07;;;;;;;1.00;0.40;;;;;;;2.68;89.18;100880.72;4965454;28;20042;-47
2020/12/25 07:17:34;;;;;;;1.02;0.55;;;;;;;2.22;92.03;100889.66;4965599;28;20117;-48
2020/12/25 07:20:01;;;;;;;1.15;0.50;;;;;;;2.20;93.04;100887.03;4965548;28;20054;-52
2020/12/25 07:22:28;;;;;;;0.40;0.40;;;;;;;2.46;93.05;100883.59;4965288;28;20050;-49
2020/12/25 07:24:54;;;;;;;1.13;0.50;;;;;;;2.50;92.46;100893.09;4965144;28;20050;-49
2020/12/25 07:27:21;;;;;;;0.70;0.50;;;;;;;2.37;92.98;100889.72;4964848;28;20153;-50
2020/12/25 07:29:50;;;;;;;0.65;0.60;;;;;;;2.39;93.66;100889.03;4964333;28;20408;-48
2020/12/25 07:32:16;;;;;;;2.92;1.00;;;;;;;2.45;93.21;100894.47;4964966;28;20054;-46
2020/12/25 07:34:43;;;;;;;1.77;0.95;;;;;;;2.93;92.62;100904.94;4965286;28;20080;-45
2020/12/25 07:37:10;;;;;;;1.42;1.30;;;;;;;2.52;93.88;100898.25;4964958;28;20069;-48
2020/12/25 07:39:37;;;;;;;2.75;1.30;;;;;;;2.59;94.14;100902.00;4965218;28;20054;-46
2020/12/25 07:42:07;;;;;;;1.73;1.05;;;;;;;2.77;93.86;100916.66;4964679;28;20051;-46
2020/12/25 07:44:34;;;;;;;1.83;1.33;;;;;;;2.80;94.00;100911.78;4962794;28;20386;-49
2020/12/25 07:47:00;;;;;;;1.85;1.48;;;;;;;2.47;95.55;100919.84;4963658;28;20125;-48
2020/12/25 07:49:29;;;;;;;2.42;2.22;;;;;;;2.41;96.07;100924.53;4968468;28;20061;-46
2020/12/25 07:51:58;;;;;;;2.33;1.65;;;;;;;2.92;95.90;100918.38;4968671;28;20500;-43
2020/12/25 07:54:26;;;;;;;1.75;1.52;;;;;;;2.79;95.18;100917.63;4967583;28;20127;-43
2020/12/25 07:56:53;;;;;;;4.03;2.35;;;;;;;2.86;96.49;100923.91;4968771;28;20077;-45
2020/12/25 07:59:21;;;;;;;3.08;2.03;;;;;;;2.99;94.11;100925.53;4964822;28;20051;-51
2020/12/25 08:01:54;;;;;;;3.28;2.97;;;;;;;2.73;95.64;100929.91;4969393;28;20117;-45
2020/12/25 08:04:20;;;;;;;4.28;3.30;;;;;;;2.78;96.62;100932.72;4968099;28;20039;-49
2020/12/25 08:06:47;;;;;;;3.92;3.03;;;;;;;2.54;96.01;100940.53;4968890;28;20448;-47
2020/12/25 08:09:17;;;;;;;4.65;3.13;;;;;;;2.76;97.12;100939.31;4968709;28;20121;-48
2020/12/25 08:11:44;;;;;;;3.58;2.33;;;;;;;2.90;96.83;100942.69;4968776;28;20534;-44
2020/12/25 08:14:14;;;;;;;3.83;2.60;;;;;;;2.68;97.66;100946.44;4968623;28;20054;-48
2020/12/25 08:16:42;;;;;;;4.93;2.17;;;;;;;2.98;97.26;100949.06;4968096;28;20051;-49
2020/12/25 08:19:09;;;;;;;5.10;1.90;;;;;;;3.24;94.86;100950.63;4968461;28;20043;-47
2020/12/25 08:21:38;;;;;;;5.22;1.80;;;;;;;3.32;93.70;100946.88;4968362;28;20285;-46
2020/12/25 08:24:05;;;;;;;3.47;1.70;;;;;;;3.06;94.76;100945.34;4968460;28;20401;-50
2020/12/25 08:26:33;;;;;;;4.93;1.70;;;;;;;3.19;93.90;100955.44;4967988;28;20505;-47
2020/12/25 08:28:59;;;;;;;5.80;2.10;;;;;;;3.22;93.83;100959.78;4968571;28;20046;-44
2020/12/25 08:31:37;;;;;;;4.18;1.70;;;;;;;3.22;93.49;100959.78;4968291;28;20488;-43
2020/12/25 08:34:05;;;;;;;2.35;1.45;;;;;;;3.38;91.72;100964.97;4968240;28;20046;-43
2020/12/25 08:36:32;;;;;;;2.67;1.42;;;;;;;3.34;90.46;100965.56;4968031;28;20058;-44
2020/12/25 08:39:07;;;;;;;2.30;0.90;;;;;;;3.51;88.43;100972.50;4967726;28;20055;-49
2020/12/25 08:41:34;;;;;;;1.05;0.95;;;;;;;3.31;90.39;100973.84;4950498;28;20050;-46
2020/12/25 08:44:12;;;;;;;4.22;1.02;;;;;;;3.44;89.73;100975.44;4969132;28;20057;-47
2020/12/25 08:46:39;;;;;;;9.75;5.72;;;;;;;3.23;90.89;100969.09;4969166;28;20062;-46
2020/12/25 08:49:06;;;;;;;5.93;4.60;;;;;;;3.15;90.55;100978.78;4968288;28;20109;-46
2020/12/25 08:51:39;;;;;;;43.50;34.08;;;;;;;3.34;90.37;100984.94;4968186;28;20055;-47
2020/12/25 08:54:08;;;;;;;16.45;8.77;;;;;;;3.34;89.50;100987.47;4967838;28;20051;-48
2020/12/25 08:56:36;;;;;;;13.02;7.57;;;;;;;3.10;90.74;100984.34;4967475;28;20102;-44
2020/12/25 08:59:07;;;;;;;2.20;1.30;;;;;;;3.64;89.45;100983.31;4964821;28;20067;-46
2020/12/25 09:01:36;;;;;;;3.03;1.27;;;;;;;3.39;90.10;100986.09;4967779;28;20050;-49
2020/12/25 09:04:04;;;;;;;1.33;1.10;;;;;;;3.51;91.00;100990.22;4967932;28;20087;-48
2020/12/25 09:06:31;;;;;;;1.25;0.95;;;;;;;3.69;88.90;100995.47;4967520;28;20346;-47
2020/12/25 09:08:58;;;;;;;1.85;0.90;;;;;;;3.67;88.03;100994.50;4967960;28;20070;-50
2020/12/25 09:11:25;;;;;;;1.67;0.90;;;;;;;3.57;86.93;100998.16;4967283;28;20047;-48
2020/12/25 09:13:52;;;;;;;0.95;0.80;;;;;;;3.70;87.07;101001.44;4967496;28;20490;-51
2020/12/25 09:16:19;;;;;;;3.28;1.15;;;;;;;3.47;89.13;101000.09;4962653;28;20569;-47
2020/12/25 09:18:46;;;;;;;1.98;1.10;;;;;;;3.46;90.09;101004.25;4967855;28;20058;-46
2020/12/25 09:21:14;;;;;;;1.45;0.90;;;;;;;3.35;89.34;101005.28;4967416;28;20058;-49
2020/12/25 09:23:41;;;;;;;1.58;0.90;;;;;;;3.54;87.80;101008.09;4967218;28;20058;-50
2020/12/25 09:26:11;;;;;;;2.38;0.77;;;;;;;3.24;88.96;101009.72;4967185;28;20058;-45
2020/12/25 09:28:37;;;;;;;1.33;1.00;;;;;;;3.32;89.89;101017.75;4966198;28;20449;-46
2020/12/25 09:31:06;;;;;;;2.95;1.42;;;;;;;3.66;88.69;101017.22;4967487;28;20055;-45
2020/12/25 09:33:34;;;;;;;1.60;1.13;;;;;;;3.64;87.61;101024.72;4963634;28;20532;-46
2020/12/25 09:36:03;;;;;;;2.28;1.15;;;;;;;3.70;88.01;101019.16;4961869;28;20504;-45
2020/12/25 09:38:29;;;;;;;2.38;0.98;;;;;;;3.55;88.82;101019.09;4959976;28;20054;-48
2020/12/25 09:40:56;;;;;;;2.72;1.30;;;;;;;3.25;88.01;101020.69;4975423;28;20061;-47
2020/12/25 09:43:23;;;;;;;2.92;1.58;;;;;;;3.60;87.92;101022.78;4975838;28;20053;-47
2020/12/25 09:45:49;;;;;;;3.65;1.95;;;;;;;3.66;88.44;101019.75;4966849;28;20121;-44
2020/12/25 09:48:16;;;;;;;3.47;2.63;;;;;;;3.54;88.90;101023.31;4967549;28;20583;-46
2020/12/25 09:50:43;;;;;;;2.80;1.23;;;;;;;3.68;87.05;101023.25;4967113;28;20109;-53
2020/12/25 09:53:10;;;;;;;1.52;0.98;;;;;;;3.61;87.25;101027.09;4966899;28;20082;-49
2020/12/25 09:55:39;;;;;;;2.17;0.77;;;;;;;3.70;85.28;101026.75;4966311;28;20050;-50
2020/12/25 09:58:07;;;;;;;2.58;1.00;;;;;;;3.75;85.94;101025.38;4965937;28;20054;-51
2020/12/25 10:00:34;;;;;;;2.35;0.95;;;;;;;3.91;86.27;101027.09;4966312;28;20520;-50
2020/12/25 10:03:01;;;;;;;3.38;1.17;;;;;;;3.99;83.78;101026.78;4966559;28;20051;-51
2020/12/25 10:05:27;;;;;;;1.40;1.02;;;;;;;3.84;85.54;101030.97;4964233;28;20105;-48
2020/12/25 10:07:54;;;;;;;2.92;0.80;;;;;;;3.75;85.49;101032.97;4961511;28;20050;-49
2020/12/25 10:10:22;;;;;;;2.50;0.80;;;;;;;3.73;85.05;101027.78;4969552;28;20047;-47
2020/12/25 10:12:50;;;;;;;3.05;1.08;;;;;;;3.62;84.72;101031.34;4970045;28;20046;-52
2020/12/25 10:15:20;;;;;;;1.35;1.00;;;;;;;3.91;84.38;101034.72;4956706;28;20097;-50
2020/12/25 10:17:47;;;;;;;1.30;0.70;;;;;;;3.71;85.87;101044.56;4960069;28;20055;-50
2020/12/25 10:20:13;;;;;;;5.60;2.20;;;;;;;4.06;84.18;101044.06;4965634;28;20109;-48
2020/12/25 10:22:40;;;;;;;4.47;2.97;;;;;;;3.99;83.45;101047.03;4964222;28;20072;-47
2020/12/25 10:25:07;;;;;;;2.33;2.13;;;;;;;4.37;82.01;101044.94;4965346;28;20417;-49
2020/12/25 10:27:40;;;;;;;1.55;0.93;;;;;;;4.00;82.94;101045.38;4965646;28;20412;-50
2020/12/25 10:30:07;;;;;;;5.55;0.90;;;;;;;4.08;83.90;101055.16;4965013;28;20133;-48
2020/12/25 10:32:37;;;;;;;1.52;0.95;;;;;;;4.03;83.37;101055.69;4965430;28;20051;-48
2020/12/25 10:35:04;;;;;;;3.28;1.00;;;;;;;3.82;84.49;101050.25;4968318;28;20050;-51
2020/12/25 10:37:30;;;;;;;3.33;1.00;;;;;;;4.07;81.89;101050.03;4966026;28;20058;-48
2020/12/25 10:39:57;;;;;;;1.33;1.00;;;;;;;3.97;82.43;101053.66;4965737;28;20042;-48
2020/12/25 10:42:24;;;;;;;2.20;1.10;;;;;;;3.97;82.26;101052.78;4966868;28;20050;-51
2020/12/25 10:44:50;;;;;;;2.00;1.20;;;;;;;3.73;83.43;101055.66;4958013;28;20460;-48
2020/12/25 10:47:16;;;;;;;2.35;1.17;;;;;;;3.91;82.83;101058.38;4966323;28;20108;-51
2020/12/25 10:49:43;;;;;;;0.88;0.80;;;;;;;4.00;84.16;101065.66;4964396;28;20105;-47
2020/12/25 10:52:09;;;;;;;2.33;0.80;;;;;;;4.06;83.83;101058.38;4968829;28;20059;-50
2020/12/25 10:54:36;;;;;;;0.95;0.63;;;;;;;3.36;84.52;101072.84;4965128;28;20062;-51
2020/12/25 10:57:02;;;;;;;3.17;0.93;;;;;;;3.74;85.37;101072.59;4964881;28;20062;-47
2020/12/25 10:59:29;;;;;;;1.70;0.82;;;;;;;3.89;84.25;101067.56;4959942;28;20051;-46
2020/12/25 11:01:55;;;;;;;1.48;0.88;;;;;;;3.89;84.62;101072.63;4963236;28;20121;-48
2020/12/25 11:04:22;;;;;;;1.70;0.98;;;;;;;3.68;85.39;101072.22;4964689;28;20101;-45
2020/12/25 11:06:48;;;;;;;7.80;2.67;;;;;;;3.43;85.48;101071.56;4962647;28;20091;-47
2020/12/25 11:09:15;;;;;;;1.90;1.25;;;;;;;3.70;85.39;101069.81;4953917;28;20109;-46
2020/12/25 11:11:41;;;;;;;11.48;5.72;;;;;;;3.87;83.84;101075.84;4959111;28;20071;-46
2020/12/25 11:14:09;;;;;;;2.55;1.45;;;;;;;3.65;84.32;101082.19;4959320;28;20054;-47
2020/12/25 11:16:37;;;;;;;8.80;4.00;;;;;;;3.97;82.10;101079.00;4958065;28;20047;-49
2020/12/25 11:19:07;;;;;;;2.50;1.15;;;;;;;3.93;82.50;101071.13;4960090;28;20046;-43
2020/12/25 11:21:34;;;;;;;3.58;1.15;;;;;;;3.94;81.26;101077.97;4962946;28;20043;-43
2020/12/25 11:24:03;;;;;;;3.30;2.53;;;;;;;3.58;82.68;101075.00;4965412;28;20077;-43
2020/12/25 11:26:35;;;;;;;1.33;1.13;;;;;;;3.39;83.46;101073.03;4964053;28;20043;-46
2020/12/25 11:29:04;;;;;;;2.25;1.20;;;;;;;3.72;82.13;101081.75;4965696;28;20235;-43
2020/12/25 11:31:31;;;;;;;1.55;0.90;;;;;;;3.83;82.34;101075.66;4965847;28;20509;-44
2020/12/25 11:33:57;;;;;;;2.03;1.13;;;;;;;4.00;82.93;101083.38;4965951;28;20055;-51
2020/12/25 11:36:29;;;;;;;2.33;0.60;;;;;;;4.10;79.28;101075.53;4965524;28;20063;-46